createdAt,value
2023-01-04T00:01:46.570Z,11.40
2023-01-04T00:04:49.025Z,10.45
2023-01-04T00:07:51.229Z,8.88
2023-01-04T00:10:53.772Z,13.65
2023-01-04T00:13:59.195Z,12.82
2023-01-04T00:17:01.702Z,12.35
2023-01-04T00:20:04.041Z,13.68
2023-01-04T00:23:06.555Z,10.93
2023-01-04T00:26:11.644Z,9.90
2023-01-04T00:29:14.755Z,9.10
2023-01-04T00:32:16.964Z,11.80
2023-01-04T00:35:44.255Z,9.93
2023-01-04T00:38:42.574Z,6.97
2023-01-04T00:41:59.237Z,9.43
2023-01-04T00:45:02.195Z,8.20
2023-01-04T00:48:04.792Z,9.90
2023-01-04T00:51:07.030Z,7.28
2023-01-04T00:54:13.446Z,10.35
2023-01-04T00:57:15.737Z,8.18
2023-01-04T01:00:18.269Z,8.63
2023-01-04T01:03:20.618Z,9.18
2023-01-04T01:06:24.982Z,8.48
2023-01-04T01:09:27.237Z,8.88
2023-01-04T01:12:30.122Z,6.72
2023-01-04T01:15:34.717Z,8.00
2023-01-04T01:18:39.506Z,8.38
2023-01-04T01:21:41.963Z,7.95
2023-01-04T01:24:44.479Z,9.13
2023-01-04T01:27:46.688Z,9.25
2023-01-04T01:30:49.235Z,7.72
2023-01-04T01:33:53.351Z,11.43
2023-01-04T01:36:56.037Z,9.27
2023-01-04T01:39:58.271Z,10.45
2023-01-04T01:43:00.791Z,10.82
2023-01-04T01:46:03.253Z,9.07
2023-01-04T01:49:11.828Z,11.43
2023-01-04T01:52:25.109Z,10.70
2023-01-04T01:55:30.696Z,11.02
2023-01-04T01:58:39.446Z,11.38
2023-01-04T02:04:48.334Z,11.45
2023-01-04T02:07:51.993Z,9.48
2023-01-04T02:10:54.197Z,12.70
2023-01-04T02:14:17.752Z,12.82
2023-01-04T02:17:44.760Z,7.68
2023-01-04T02:21:02.440Z,9.02
2023-01-04T02:24:41.419Z,9.27
2023-01-04T02:27:56.590Z,7.43
2023-01-04T02:31:20.486Z,11.48
2023-01-04T02:34:38.858Z,10.80
2023-01-04T02:37:58.426Z,8.63
2023-01-04T02:41:00.857Z,9.93
2023-01-04T02:44:35.371Z,9.38
2023-01-04T02:48:17.515Z,8.23
2023-01-04T02:51:30.231Z,9.57
2023-01-04T02:54:33.343Z,13.85
2023-01-04T02:57:58.371Z,9.57
2023-01-04T03:01:30.120Z,8.77
2023-01-04T03:05:03.186Z,10.30
2023-01-04T03:08:24.141Z,8.25
2023-01-04T03:11:55.832Z,7.95
2023-01-04T03:15:22.001Z,8.02
2023-01-04T03:18:28.181Z,6.45
2023-01-04T03:21:33.092Z,7.87
2023-01-04T03:24:54.125Z,9.80
2023-01-04T03:28:16.513Z,6.95
2023-01-04T03:31:53.152Z,11.75
2023-01-04T03:35:15.098Z,7.85
2023-01-04T03:38:49.179Z,7.57
2023-01-04T03:42:36.205Z,7.78
2023-01-04T03:46:08.118Z,7.15
2023-01-04T03:49:23.507Z,6.07
2023-01-04T03:52:30.674Z,6.32
2023-01-04T03:55:36.068Z,6.93
2023-01-04T03:58:39.068Z,12.57
2023-01-04T04:01:43.434Z,11.63
2023-01-04T04:05:05.071Z,12.93
2023-01-04T04:08:25.974Z,11.70
2023-01-04T04:11:31.592Z,9.50
2023-01-04T04:14:34.098Z,10.68
2023-01-04T04:17:36.552Z,10.35
2023-01-04T04:20:38.841Z,10.85
2023-01-04T04:23:41.351Z,9.40
2023-01-04T04:26:43.921Z,13.10
2023-01-04T04:29:46.466Z,12.30
2023-01-04T04:32:48.686Z,10.43
2023-01-04T04:35:52.758Z,14.98
2023-01-04T04:38:55.055Z,14.95
2023-01-04T04:41:57.547Z,11.80
2023-01-04T04:45:00.180Z,12.68
2023-01-04T04:48:02.841Z,13.95
2023-01-04T04:51:05.383Z,10.80
2023-01-04T04:54:12.069Z,10.88
2023-01-04T04:57:14.362Z,10.27
2023-01-04T05:00:17.594Z,14.52
2023-01-04T05:03:20.122Z,13.07
2023-01-04T05:06:23.945Z,13.62
2023-01-04T05:09:26.327Z,13.07
2023-01-04T05:12:49.093Z,12.23
2023-01-04T05:15:56.288Z,12.25
2023-01-04T05:18:59.334Z,12.93
2023-01-04T05:22:11.609Z,19.92
2023-01-04T05:25:28.974Z,13.52
2023-01-04T05:28:32.003Z,13.95
2023-01-04T05:31:37.224Z,11.48
2023-01-04T05:34:55.148Z,13.27
2023-01-04T05:37:58.743Z,11.88
2023-01-04T05:41:02.141Z,11.43
2023-01-04T05:44:05.167Z,15.20
2023-01-04T05:47:14.492Z,15.77
2023-01-04T05:50:19.841Z,12.73
2023-01-04T05:53:22.341Z,15.63
2023-01-04T05:56:53.082Z,14.60
2023-01-04T06:00:05.762Z,13.55
2023-01-04T06:03:16.798Z,14.05
2023-01-04T06:06:30.576Z,13.48
2023-01-04T06:09:41.374Z,13.38
2023-01-04T06:12:53.040Z,15.50
2023-01-04T06:15:55.232Z,20.83
2023-01-04T06:18:57.858Z,15.52
2023-01-04T06:22:00.471Z,20.35
2023-01-04T06:25:03.766Z,15.18
2023-01-04T06:28:05.950Z,17.25
2023-01-04T06:31:10.835Z,12.63
2023-01-04T06:34:14.464Z,15.35
2023-01-04T06:37:16.979Z,17.55
2023-01-04T06:40:19.279Z,20.20
2023-01-04T06:43:21.802Z,16.42
2023-01-04T06:46:24.055Z,16.00
2023-01-04T06:49:26.664Z,15.05
2023-01-04T06:52:28.977Z,15.20
2023-01-04T06:55:34.245Z,18.33
2023-01-04T06:58:36.830Z,17.48
2023-01-04T07:01:39.845Z,19.15
2023-01-04T07:04:43.186Z,15.23
2023-01-04T07:07:45.803Z,18.92
2023-01-04T07:10:48.132Z,14.68
2023-01-04T07:13:52.759Z,17.08
2023-01-04T07:16:55.101Z,17.15
2023-01-04T07:19:57.675Z,23.77
2023-01-04T07:22:59.972Z,15.43
2023-01-04T07:26:03.251Z,20.48
2023-01-04T07:29:14.573Z,16.70
2023-01-04T07:32:18.100Z,17.50
2023-01-04T07:35:21.248Z,23.95
2023-01-04T07:38:24.314Z,21.45
2023-01-04T07:41:26.580Z,19.55
2023-01-04T07:44:29.362Z,20.95
2023-01-04T07:47:33.605Z,19.62
2023-01-04T07:50:43.270Z,27.60
2023-01-04T07:53:45.565Z,22.83
2023-01-04T07:56:48.679Z,24.35
2023-01-04T07:59:52.989Z,20.85
2023-01-04T08:02:57.232Z,22.25
2023-01-04T08:06:06.660Z,22.85
2023-01-04T08:12:14.483Z,19.50
2023-01-04T08:15:16.972Z,18.23
2023-01-04T08:18:20.660Z,19.70
2023-01-04T08:21:24.823Z,27.77
2023-01-04T08:24:30.434Z,24.10
2023-01-04T08:27:33.260Z,24.08
2023-01-04T08:30:35.934Z,24.02
2023-01-04T08:33:39.587Z,22.05
2023-01-04T08:36:51.160Z,22.30
2023-01-04T08:39:53.703Z,21.25
2023-01-04T08:42:56.382Z,21.12
2023-01-04T08:45:58.802Z,19.60
2023-01-04T08:49:01.303Z,19.23
2023-01-04T08:52:03.619Z,20.17
2023-01-04T08:55:12.201Z,21.70
2023-01-04T08:58:15.641Z,17.12
2023-01-04T09:01:18.297Z,20.42
2023-01-04T09:04:20.705Z,20.67
2023-01-04T09:07:23.363Z,20.50
2023-01-04T09:10:25.901Z,18.80
2023-01-04T09:13:28.741Z,19.30
2023-01-04T09:16:31.035Z,17.85
2023-01-04T09:19:33.788Z,21.48
2023-01-04T09:22:36.402Z,18.77
2023-01-04T09:25:40.304Z,19.05
2023-01-04T09:28:43.460Z,23.55
2023-01-04T09:31:49.125Z,18.58
2023-01-04T09:34:51.650Z,18.42
2023-01-04T09:37:55.770Z,17.17
2023-01-04T09:41:10.946Z,22.92
2023-01-04T09:44:34.531Z,18.30
2023-01-04T09:47:59.797Z,18.98
2023-01-04T09:51:10.365Z,17.80
2023-01-04T09:54:18.405Z,19.65
2023-01-04T09:57:31.204Z,17.65
2023-01-04T10:00:44.237Z,23.70
2023-01-04T10:04:31.158Z,20.05
2023-01-04T10:07:34.442Z,21.33
2023-01-04T10:11:18.837Z,19.40
2023-01-04T10:14:24.277Z,19.83
2023-01-04T10:18:34.119Z,20.83
2023-01-04T10:21:31.926Z,24.67
2023-01-04T10:24:35.709Z,21.25
2023-01-04T10:28:00.517Z,15.07
2023-01-04T10:31:38.480Z,14.40
2023-01-04T10:34:42.019Z,18.92
2023-01-04T10:37:47.169Z,16.80
2023-01-04T10:40:50.474Z,18.98
2023-01-04T10:44:28.641Z,14.57
2023-01-04T10:47:53.584Z,18.12
2023-01-04T10:51:07.065Z,18.60
2023-01-04T10:54:44.090Z,22.52
2023-01-04T10:57:58.730Z,20.17
2023-01-04T11:01:10.455Z,18.80
2023-01-04T11:04:19.441Z,17.25
2023-01-04T11:07:43.980Z,23.77
2023-01-04T11:10:55.693Z,15.68
2023-01-04T11:14:00.161Z,15.48
2023-01-04T11:17:05.703Z,12.95
2023-01-04T11:20:09.113Z,14.55
2023-01-04T11:23:15.093Z,13.02
2023-01-04T11:26:31.381Z,10.77
2023-01-04T11:29:58.252Z,7.50
2023-01-04T11:33:09.584Z,9.23
2023-01-04T11:36:33.562Z,10.55
2023-01-04T11:39:39.293Z,8.15
2023-01-04T11:42:43.794Z,13.18
2023-01-04T11:45:57.967Z,6.85
2023-01-04T11:49:00.707Z,10.18
2023-01-04T11:52:04.617Z,10.57
2023-01-04T11:55:27.329Z,11.02
2023-01-04T11:58:29.947Z,6.45
2023-01-04T12:01:38.193Z,7.47
2023-01-04T12:04:41.106Z,9.70
2023-01-04T12:07:43.495Z,6.62
2023-01-04T12:10:46.144Z,5.68
2023-01-04T12:13:48.464Z,5.85
2023-01-04T12:17:04.409Z,6.82
2023-01-04T12:20:19.737Z,5.50
2023-01-04T12:23:23.380Z,6.07
2023-01-04T12:26:26.064Z,6.20
2023-01-04T12:29:32.961Z,3.60
2023-01-04T12:32:35.193Z,3.22
2023-01-04T12:35:59.505Z,2.80
2023-01-04T12:39:13.780Z,6.97
2023-01-04T12:42:27.574Z,7.10
2023-01-04T12:45:29.809Z,4.82
2023-01-04T12:48:55.484Z,4.87
2023-01-04T12:52:32.411Z,3.12
2023-01-04T12:55:44.885Z,3.20
2023-01-04T12:59:25.845Z,2.53
2023-01-04T13:02:30.306Z,4.35
2023-01-04T13:09:00.006Z,3.60
2023-01-04T13:12:13.585Z,3.10
2023-01-04T13:15:40.972Z,4.47
2023-01-04T13:18:50.537Z,3.70
2023-01-04T13:21:54.321Z,2.70
2023-01-04T13:24:58.700Z,2.17
2023-01-04T13:28:03.538Z,2.65
2023-01-04T13:31:05.857Z,2.00
2023-01-04T13:34:18.146Z,7.82
2023-01-04T13:37:26.386Z,9.23
2023-01-04T13:40:34.365Z,7.28
2023-01-04T13:43:36.523Z,6.78
2023-01-04T13:46:43.098Z,10.85
2023-01-04T13:49:45.478Z,11.27
2023-01-04T13:52:59.922Z,13.62
2023-01-04T13:56:06.489Z,14.05
2023-01-04T13:59:09.685Z,14.95
2023-01-04T14:02:18.235Z,13.60
2023-01-04T14:05:21.009Z,18.48
2023-01-04T14:08:37.450Z,15.10
2023-01-04T14:12:05.651Z,15.68
2023-01-04T14:15:20.498Z,13.82
2023-01-04T14:18:26.841Z,17.05
2023-01-04T14:21:36.968Z,19.62
2023-01-04T14:25:08.369Z,16.85
2023-01-04T14:28:30.136Z,20.77
2023-01-04T14:31:36.031Z,23.27
2023-01-04T14:34:38.345Z,24.42
2023-01-04T14:37:41.993Z,24.70
2023-01-04T14:40:48.554Z,24.95
2023-01-04T14:44:01.433Z,22.95
2023-01-04T14:47:06.797Z,23.27
2023-01-04T14:50:28.677Z,24.30
2023-01-04T14:53:33.374Z,22.98
2023-01-04T14:56:36.416Z,25.33
2023-01-04T14:59:39.481Z,25.27
2023-01-04T15:02:42.754Z,23.58
2023-01-04T15:05:46.823Z,25.10
2023-01-04T15:08:51.807Z,22.87
2023-01-04T15:11:54.981Z,28.15
2023-01-04T15:14:57.921Z,24.98
2023-01-04T15:18:00.802Z,22.35
2023-01-04T15:21:05.349Z,24.87
2023-01-04T15:24:09.473Z,24.77
2023-01-04T15:27:21.008Z,24.73
2023-01-04T15:30:33.951Z,25.17
2023-01-04T15:38:44.567Z,24.80
2023-01-04T15:42:42.808Z,27.60
2023-01-04T15:46:11.850Z,39.65
2023-01-04T15:49:18.645Z,33.30
2023-01-04T15:55:43.198Z,34.33
2023-01-04T15:59:13.343Z,36.15
2023-01-04T16:02:49.234Z,34.85
2023-01-04T16:06:14.160Z,35.50
2023-01-04T16:09:46.012Z,42.22
2023-01-04T16:13:23.119Z,39.63
2023-01-04T16:16:35.300Z,36.88
2023-01-04T16:43:54.498Z,36.03
2023-01-04T16:47:54.317Z,45.97
